This is the latest recevied weather packets stored in our database for station/object WA4ORT. If no packets are shown the sender has not sent any weather packets the latest 10 day(s).
| Time | Temp. | Humidity | Pressure | Rain* | Wind** | Luminosity | Snow |
|---|---|---|---|---|---|---|---|
| 1777535029 | 22.22° C | - | - | 0 mm | 0.89 m/s, 188° | - | - |
| 1777534134 | 22.78° C | - | - | 0 mm | 2.24 m/s, 231° | - | - |
| 1777533236 | 22.78° C | - | - | 0 mm | 2.24 m/s, 207° | - | - |
| 1777532342 | 22.78° C | - | - | 0 mm | 0.89 m/s, 200° | - | - |
| 1777531447 | 23.33° C | - | - | 0 mm | 0.89 m/s, 270° | - | - |
| 1777530549 | 22.78° C | - | - | 0 mm | 1.34 m/s, 264° | - | - |
| 1777529654 | 22.78° C | - | - | 0 mm | 0.45 m/s, 111° | - | - |
| 1777528760 | 22.78° C | - | - | 0 mm | 0 m/s | - | - |
| 1777527862 | 22.78° C | - | - | 0 mm | 1.34 m/s, 312° | - | - |
| 1777526967 | 23.33° C | - | - | 0 mm | 0.45 m/s, 280° | - | - |
| 1777526073 | 23.33° C | - | - | 0 mm | 1.34 m/s, 287° | - | - |
| 1777525175 | 23.89° C | - | - | 0 mm | 1.34 m/s, 248° | - | - |
| 1777524280 | 23.89° C | - | - | 0 mm | 2.24 m/s, 290° | - | - |
| 1777523385 | 23.89° C | - | - | 0 mm | 2.68 m/s, 290° | - | - |
| 1777522487 | 23.33° C | - | - | 0 mm | 2.24 m/s, 288° | - | - |
| 1777521593 | 23.33° C | - | - | 0 mm | 1.34 m/s, 281° | - | - |
| 1777520698 | 23.33° C | - | - | 0 mm | 0.45 m/s, 253° | - | - |
| 1777519800 | 23.89° C | - | - | 0 mm | 2.24 m/s, 291° | - | - |
| 1777518905 | 23.89° C | - | - | 0 mm | 0.89 m/s, 277° | - | - |
| 1777518011 | 23.89° C | - | - | 0 mm | 1.79 m/s, 294° | - | - |
| 1777517113 | 23.89° C | - | - | 0 mm | 1.34 m/s, 233° | - | - |
| 1777516218 | 23.89° C | - | - | 0 mm | 0 m/s | - | - |
| 1777515324 | 23.89° C | - | - | 0 mm | 0.45 m/s, 226° | - | - |
| 1777514426 | 23.89° C | - | - | 0 mm | 0 m/s | - | - |
| 1777513531 | 24.44° C | - | - | 0 mm | 0 m/s | - | - |
* Rain latest hour (hover to see other rain measurements)
** Current wind speed in m/s (hover to see current wind gust speed)